Time;durP1;ratioP1;P1;durP2;ratioP2;P2;SDS_P1;SDS_P2;PMS_P1;PMS_P2;Temp;Humidity;BMP_temperature;BMP_pressure;BME280_temperature;BME280_humidity;BME280_pressure;Samples;Min_cycle;Max_cycle;Signal;HPM_P1;HPM_P2
2022/02/22 00:00:35;;;;;;;39.75;6.55;;;7.10;99.90;;;;;;5188905;22;20087;-74
2022/02/22 00:02:36;;;;;;;29.45;6.25;;;7.00;99.90;;;;;;5163091;23;20024;-74
2022/02/22 00:04:38;;;;;;;39.53;7.05;;;7.00;99.90;;;;;;5190533;22;20015;-74
2022/02/22 00:06:39;;;;;;;45.85;7.40;;;7.00;99.90;;;;;;5189040;22;20007;-74
2022/02/22 00:08:39;;;;;;;39.90;7.35;;;7.00;99.90;;;;;;5162510;23;20392;-73
2022/02/22 00:10:40;;;;;;;33.78;5.65;;;7.00;99.90;;;;;;5189295;22;20498;-73
2022/02/22 00:12:42;;;;;;;28.20;6.18;;;7.00;99.90;;;;;;5189928;22;20061;-74
2022/02/22 00:14:44;;;;;;;40.05;7.45;;;7.00;99.90;;;;;;5189268;22;20034;-74
2022/02/22 00:16:44;;;;;;;43.30;7.75;;;6.90;99.90;;;;;;5190557;22;20018;-74
2022/02/22 00:18:45;;;;;;;38.85;6.78;;;6.90;99.90;;;;;;5190763;22;20031;-74
2022/02/22 00:20:46;;;;;;;40.13;7.72;;;6.90;99.90;;;;;;5162111;23;20521;-74
2022/02/22 00:22:47;;;;;;;44.35;6.93;;;6.80;99.90;;;;;;5191381;22;20007;-74
2022/02/22 00:24:47;;;;;;;42.67;7.80;;;6.80;99.90;;;;;;5191919;22;20352;-74
2022/02/22 00:26:48;;;;;;;40.33;7.32;;;6.70;99.90;;;;;;5190639;22;20010;-74
2022/02/22 00:28:49;;;;;;;40.50;6.28;;;6.80;99.90;;;;;;5163851;23;20001;-74
2022/02/22 00:30:50;;;;;;;48.83;8.48;;;6.70;99.90;;;;;;5190611;22;20000;-74
2022/02/22 00:32:52;;;;;;;52.42;7.75;;;6.70;99.90;;;;;;5163062;23;20015;-74
2022/02/22 00:34:52;;;;;;;37.75;7.22;;;6.70;99.90;;;;;;5188619;22;20014;-74
2022/02/22 00:36:53;;;;;;;43.67;7.25;;;6.70;99.90;;;;;;5190226;22;20079;-74
2022/02/22 00:38:54;;;;;;;43.97;7.60;;;6.70;99.90;;;;;;5163983;23;20039;-74
2022/02/22 00:40:54;;;;;;;45.13;6.90;;;6.60;99.90;;;;;;5190030;22;20094;-74
2022/02/22 00:42:55;;;;;;;39.63;7.57;;;6.60;99.90;;;;;;5190850;22;20012;-74
2022/02/22 00:44:56;;;;;;;42.45;7.18;;;6.60;99.90;;;;;;5190214;22;20027;-74
2022/02/22 00:46:56;;;;;;;49.33;7.20;;;6.60;99.90;;;;;;5189818;22;20020;-74
2022/02/22 00:48:57;;;;;;;48.63;8.18;;;6.60;99.90;;;;;;5190756;22;20065;-74
2022/02/22 00:50:57;;;;;;;37.42;6.45;;;6.50;99.90;;;;;;5162181;23;20019;-74
2022/02/22 00:52:58;;;;;;;28.60;5.88;;;6.60;99.90;;;;;;5163250;23;20086;-74
2022/02/22 00:54:59;;;;;;;37.15;6.93;;;6.60;99.90;;;;;;5162043;23;20024;-74
2022/02/22 00:56:59;;;;;;;34.38;6.60;;;6.60;99.90;;;;;;5189323;22;20456;-74
2022/02/22 00:59:01;;;;;;;38.08;7.88;;;6.60;99.90;;;;;;5137215;23;20020;-74
2022/02/22 01:01:02;;;;;;;35.38;6.80;;;6.50;99.90;;;;;;5188572;22;20066;-74
2022/02/22 01:03:02;;;;;;;42.42;7.65;;;6.50;99.90;;;;;;5189350;22;20438;-74
2022/02/22 01:05:03;;;;;;;45.38;7.55;;;6.50;99.90;;;;;;5188607;22;20086;-74
2022/02/22 01:07:04;;;;;;;43.05;6.80;;;6.50;99.90;;;;;;5161936;23;20694;-74
2022/02/22 01:09:06;;;;;;;33.22;6.80;;;6.50;99.90;;;;;;5189062;22;20429;-74
2022/02/22 01:11:07;;;;;;;27.02;5.47;;;6.50;99.90;;;;;;5187884;22;20057;-74
2022/02/22 01:13:07;;;;;;;37.50;6.53;;;6.50;99.90;;;;;;5188915;22;20012;-74
2022/02/22 01:15:09;;;;;;;46.95;7.35;;;6.50;99.90;;;;;;5188765;22;20027;-74
2022/02/22 01:17:10;;;;;;;47.28;7.78;;;6.50;99.90;;;;;;5189192;22;20468;-74
2022/02/22 01:19:11;;;;;;;41.50;7.15;;;6.50;99.90;;;;;;5162018;23;20442;-74
2022/02/22 01:21:12;;;;;;;55.63;7.78;;;6.40;99.90;;;;;;5161559;23;20019;-74
2022/02/22 01:23:12;;;;;;;47.40;7.18;;;6.40;99.90;;;;;;5161916;23;20012;-74
2022/02/22 01:25:13;;;;;;;30.60;6.05;;;6.40;99.90;;;;;;5162085;23;20027;-74
2022/02/22 01:27:13;;;;;;;34.97;6.82;;;6.40;99.90;;;;;;5162394;23;20019;-74
2022/02/22 01:29:14;;;;;;;34.95;6.50;;;6.40;99.90;;;;;;5190712;22;20019;-74
2022/02/22 01:31:15;;;;;;;36.15;6.97;;;6.40;99.90;;;;;;5161452;23;20409;-73
2022/02/22 01:33:16;;;;;;;41.30;6.60;;;6.30;99.90;;;;;;5162252;23;20410;-74
2022/02/22 01:35:16;;;;;;;35.40;6.03;;;6.40;99.90;;;;;;5161466;23;20449;-73
2022/02/22 01:37:17;;;;;;;32.22;6.57;;;6.30;99.90;;;;;;5191164;22;20011;-74
2022/02/22 01:39:18;;;;;;;33.22;6.30;;;6.30;99.90;;;;;;5162257;23;20008;-74
2022/02/22 01:41:22;;;;;;;42.03;6.25;;;6.30;99.90;;;;;;5161386;23;20023;-74
2022/02/22 01:43:23;;;;;;;32.15;5.70;;;6.20;99.90;;;;;;5162229;23;20079;-74
2022/02/22 01:45:24;;;;;;;43.85;6.82;;;6.30;99.90;;;;;;5189120;22;20101;-74
2022/02/22 01:47:24;;;;;;;33.53;6.75;;;6.20;99.90;;;;;;5189616;22;20019;-74
2022/02/22 01:49:26;;;;;;;44.72;6.70;;;6.20;99.90;;;;;;5189568;22;20008;-74
2022/02/22 01:51:26;;;;;;;50.05;8.05;;;6.20;99.90;;;;;;5189252;22;20016;-74
2022/02/22 01:53:27;;;;;;;34.05;6.03;;;6.20;99.90;;;;;;5189818;22;20031;-74
2022/02/22 01:55:28;;;;;;;30.00;5.60;;;6.30;99.90;;;;;;5161893;23;20087;-74
2022/02/22 01:57:29;;;;;;;36.17;6.80;;;6.20;99.90;;;;;;5189624;22;20031;-74
2022/02/22 01:59:30;;;;;;;39.88;6.65;;;6.30;99.90;;;;;;5189270;22;20011;-74
2022/02/22 02:01:30;;;;;;;40.83;6.25;;;6.30;99.90;;;;;;5188916;22;20090;-74
2022/02/22 02:03:31;;;;;;;34.25;6.38;;;6.40;99.90;;;;;;5189129;22;20016;-74
2022/02/22 02:05:32;;;;;;;32.17;5.93;;;6.30;99.90;;;;;;5188320;22;20137;-74
2022/02/22 02:07:33;;;;;;;40.53;6.68;;;6.20;99.90;;;;;;5161596;23;20282;-74
2022/02/22 02:09:33;;;;;;;34.08;5.38;;;6.20;99.90;;;;;;5189040;22;20030;-74
2022/02/22 02:11:48;;;;;;;38.00;5.90;;;6.20;99.90;;;;;;5188821;22;20011;-74
2022/02/22 02:13:49;;;;;;;39.95;6.38;;;6.20;99.90;;;;;;5161675;23;20012;-74
2022/02/22 02:15:49;;;;;;;32.45;6.43;;;6.20;99.90;;;;;;5161547;23;20438;-74
2022/02/22 02:17:50;;;;;;;29.65;5.95;;;6.20;99.90;;;;;;5189402;22;20038;-74
2022/02/22 02:19:51;;;;;;;28.30;5.50;;;6.20;99.90;;;;;;5189726;22;20014;-74
2022/02/22 02:21:56;;;;;;;41.58;6.13;;;6.20;99.90;;;;;;5189410;22;20016;-74
2022/02/22 02:24:20;;;;;;;36.85;6.05;;;6.20;99.90;;;;;;5189565;22;20011;-74
2022/02/22 02:26:22;;;;;;;39.92;5.75;;;6.20;99.90;;;;;;5187716;22;20468;-74
2022/02/22 02:28:23;;;;;;;30.95;5.47;;;6.20;99.90;;;;;;5189644;22;20023;-74
2022/02/22 02:30:23;;;;;;;37.15;6.55;;;6.10;99.90;;;;;;5135739;23;20577;-74
2022/02/22 02:32:24;;;;;;;34.25;5.75;;;6.20;99.90;;;;;;5136564;23;20009;-74
2022/02/22 02:34:26;;;;;;;31.42;5.93;;;6.20;99.90;;;;;;5189482;22;20019;-74
2022/02/22 02:36:27;;;;;;;34.28;6.38;;;6.20;99.90;;;;;;5188663;22;20015;-74
2022/02/22 02:38:28;;;;;;;22.73;4.68;;;6.20;99.90;;;;;;5189125;22;20022;-74
2022/02/22 02:40:28;;;;;;;30.67;5.60;;;6.20;99.90;;;;;;5161717;23;20366;-74
2022/02/22 02:42:29;;;;;;;32.90;5.82;;;6.20;99.90;;;;;;5190060;22;20062;-74
2022/02/22 02:44:29;;;;;;;30.42;5.65;;;6.30;99.90;;;;;;5189607;22;20015;-74
2022/02/22 02:46:30;;;;;;;22.58;4.55;;;6.20;99.90;;;;;;5161402;23;20453;-74
2022/02/22 02:48:30;;;;;;;30.25;5.72;;;6.20;99.90;;;;;;5189774;22;20095;-74
2022/02/22 02:50:31;;;;;;;31.92;5.30;;;6.20;99.90;;;;;;5188715;22;20093;-74
2022/02/22 02:52:32;;;;;;;24.92;4.97;;;6.20;99.90;;;;;;5162608;23;20008;-74
2022/02/22 02:54:33;;;;;;;24.67;5.25;;;6.20;99.90;;;;;;5189679;22;20560;-74
2022/02/22 02:56:34;;;;;;;22.17;4.80;;;6.30;99.90;;;;;;5188177;22;20090;-74
2022/02/22 02:58:34;;;;;;;25.50;4.85;;;6.30;99.90;;;;;;5162608;23;20001;-74
2022/02/22 03:00:35;;;;;;;31.55;5.30;;;6.30;99.90;;;;;;5188746;22;20019;-74
2022/02/22 03:02:36;;;;;;;31.83;5.97;;;6.30;99.90;;;;;;5189517;22;20078;-74
2022/02/22 03:04:36;;;;;;;26.13;4.90;;;6.20;99.90;;;;;;5188998;22;20008;-74
2022/02/22 03:06:37;;;;;;;27.88;5.45;;;6.30;99.90;;;;;;5161368;23;20004;-74
2022/02/22 03:08:37;;;;;;;37.63;6.40;;;6.20;99.90;;;;;;5137714;23;20013;-74
2022/02/22 03:10:38;;;;;;;24.17;5.15;;;6.20;99.90;;;;;;5187614;22;20008;-74
2022/02/22 03:12:39;;;;;;;21.33;4.65;;;6.20;99.90;;;;;;5188939;22;20376;-74
2022/02/22 03:14:39;;;;;;;25.02;5.40;;;6.20;99.90;;;;;;5161074;23;20426;-74
2022/02/22 03:16:40;;;;;;;20.30;4.57;;;6.20;99.90;;;;;;5187927;22;20074;-74
2022/02/22 03:18:42;;;;;;;28.08;4.88;;;6.20;99.90;;;;;;5190318;22;20498;-74
2022/02/22 03:20:43;;;;;;;28.27;5.32;;;6.20;99.90;;;;;;5189276;22;20000;-74
2022/02/22 03:22:45;;;;;;;37.72;5.88;;;6.20;99.90;;;;;;5163074;23;20032;-74
2022/02/22 03:24:45;;;;;;;27.65;4.38;;;6.20;99.90;;;;;;5188980;22;20008;-74
2022/02/22 03:26:47;;;;;;;26.77;4.95;;;6.20;99.90;;;;;;5162833;23;20058;-74
2022/02/22 03:28:47;;;;;;;30.65;5.25;;;6.10;99.90;;;;;;5190339;22;20053;-74
2022/02/22 03:30:49;;;;;;;35.30;6.15;;;6.10;99.90;;;;;;5190358;22;20074;-74
2022/02/22 03:32:51;;;;;;;29.90;5.85;;;6.00;99.90;;;;;;5191176;22;20012;-74
2022/02/22 03:34:52;;;;;;;;;;;6.00;99.90;;;;;;5191773;22;20061;-74
2022/02/22 03:36:53;;;;;;;27.45;5.10;;;6.00;99.90;;;;;;5162440;23;19903;-74
2022/02/22 03:38:54;;;;;;;34.38;6.30;;;6.00;99.90;;;;;;5191290;22;20019;-74
2022/02/22 03:40:55;;;;;;;30.50;5.53;;;6.00;99.90;;;;;;5190263;22;20012;-74
2022/02/22 03:42:56;;;;;;;36.03;5.53;;;5.90;99.90;;;;;;5190657;22;20007;-74
2022/02/22 03:44:57;;;;;;;21.40;4.97;;;5.90;99.90;;;;;;5190489;22;20357;-74
2022/02/22 03:46:57;;;;;;;25.58;5.47;;;5.90;99.90;;;;;;5189898;22;20010;-74
2022/02/22 03:48:58;;;;;;;32.88;5.75;;;5.90;99.90;;;;;;5190807;22;20177;-74
2022/02/22 03:50:59;;;;;;;21.58;4.50;;;5.90;99.90;;;;;;5189594;22;20472;-74
2022/02/22 03:52:59;;;;;;;29.58;4.75;;;5.80;99.90;;;;;;5163065;23;19996;-74
2022/02/22 03:55:00;;;;;;;35.08;5.85;;;5.90;99.90;;;;;;5190611;22;20008;-74
2022/02/22 03:57:00;;;;;;;35.92;6.22;;;5.90;99.90;;;;;;5162435;23;20039;-74
2022/02/22 03:59:01;;;;;;;33.60;5.60;;;5.90;99.90;;;;;;5190293;22;20349;-74
2022/02/22 04:01:02;;;;;;;31.38;5.82;;;5.90;99.90;;;;;;5189301;22;20035;-74
2022/02/22 04:03:03;;;;;;;31.63;5.07;;;5.90;99.90;;;;;;5189986;22;20372;-73
2022/02/22 04:05:05;;;;;;;31.57;5.73;;;5.90;99.90;;;;;;5189762;22;20011;-74
2022/02/22 04:07:06;;;;;;;19.30;3.73;;;5.80;99.90;;;;;;5189871;22;20303;-73
2022/02/22 04:09:08;;;;;;;25.42;4.40;;;5.90;99.90;;;;;;5162341;23;20063;-73
2022/02/22 04:11:09;;;;;;;33.78;5.28;;;5.90;99.90;;;;;;5162179;23;20032;-73
2022/02/22 04:13:09;;;;;;;19.80;3.85;;;5.90;99.90;;;;;;5162485;23;20062;-74
2022/02/22 04:15:11;;;;;;;26.05;5.07;;;5.90;99.90;;;;;;5189265;22;20087;-73
2022/02/22 04:17:11;;;;;;;36.47;6.40;;;5.90;99.90;;;;;;5162494;23;20012;-74
2022/02/22 04:19:12;;;;;;;20.85;4.93;;;6.00;99.90;;;;;;5189494;22;20371;-73
2022/02/22 04:21:12;;;;;;;29.33;5.13;;;6.00;99.90;;;;;;5162102;23;20409;-73
2022/02/22 04:23:13;;;;;;;36.47;6.03;;;6.00;99.90;;;;;;5189512;22;20353;-74
2022/02/22 04:25:14;;;;;;;25.60;5.38;;;6.00;99.90;;;;;;5161700;23;20031;-73
2022/02/22 04:27:14;;;;;;;30.40;5.68;;;5.90;99.90;;;;;;5162560;23;20106;-74
2022/02/22 04:29:15;;;;;;;32.22;5.50;;;6.00;99.90;;;;;;5136575;23;20044;-73
2022/02/22 04:31:15;;;;;;;19.83;4.25;;;6.00;99.90;;;;;;5190542;22;20035;-73
2022/02/22 04:33:16;;;;;;;23.35;4.95;;;6.00;99.90;;;;;;5191717;22;20019;-74
2022/02/22 04:35:17;;;;;;;33.83;5.60;;;6.00;99.90;;;;;;5190730;22;20020;-74
2022/02/22 04:37:18;;;;;;;30.58;5.15;;;6.00;99.90;;;;;;5190850;22;20015;-74
2022/02/22 04:39:19;;;;;;;24.27;4.88;;;5.90;99.90;;;;;;5191439;22;20322;-73
2022/02/22 04:41:19;;;;;;;26.90;5.00;;;6.00;99.90;;;;;;5190633;22;20064;-74
2022/02/22 04:43:20;;;;;;;31.92;5.07;;;5.90;99.90;;;;;;5191043;22;20022;-74
2022/02/22 04:45:20;;;;;;;26.48;5.10;;;5.90;99.90;;;;;;5189767;22;20027;-73
2022/02/22 04:47:21;;;;;;;31.95;5.63;;;5.90;99.90;;;;;;5190375;22;20016;-74
2022/02/22 04:49:21;;;;;;;22.83;4.18;;;5.90;99.90;;;;;;5191066;22;20012;-74
2022/02/22 04:51:22;;;;;;;23.58;4.38;;;5.90;99.90;;;;;;5190177;22;20018;-73
2022/02/22 04:53:23;;;;;;;30.35;5.10;;;5.90;99.90;;;;;;5190970;22;20011;-74
2022/02/22 04:55:23;;;;;;;23.25;4.90;;;5.90;99.90;;;;;;5189285;22;20016;-74
2022/02/22 04:57:24;;;;;;;27.95;4.78;;;5.90;99.90;;;;;;5162933;23;20027;-73
2022/02/22 04:59:25;;;;;;;25.35;4.50;;;5.90;99.90;;;;;;5162582;23;20016;-74
2022/02/22 05:01:26;;;;;;;22.25;4.78;;;5.90;99.90;;;;;;5189072;22;20012;-73
2022/02/22 05:03:26;;;;;;;29.98;5.00;;;5.90;99.90;;;;;;5162154;23;20111;-74
2022/02/22 05:05:27;;;;;;;28.30;5.68;;;5.90;99.90;;;;;;5188985;22;20015;-73
2022/02/22 05:07:28;;;;;;;24.88;4.95;;;5.80;99.90;;;;;;5162145;23;20012;-73
2022/02/22 05:09:28;;;;;;;31.95;5.78;;;5.80;99.90;;;;;;5162259;23;20152;-73
2022/02/22 05:11:29;;;;;;;42.00;6.75;;;5.80;99.90;;;;;;5161289;23;20082;-73
2022/02/22 05:13:29;;;;;;;28.27;5.78;;;5.90;99.90;;;;;;5189620;22;20396;-74
2022/02/22 05:15:32;;;;;;;25.23;4.95;;;5.80;99.90;;;;;;5160685;23;20336;-74
2022/02/22 05:17:33;;;;;;;25.63;5.10;;;5.80;99.90;;;;;;5188886;22;20012;-74
2022/02/22 05:19:34;;;;;;;24.70;4.72;;;5.80;99.90;;;;;;5189243;22;20079;-73
2022/02/22 05:21:34;;;;;;;30.08;6.00;;;5.80;99.90;;;;;;5187927;22;20345;-74
2022/02/22 05:23:35;;;;;;;19.67;4.10;;;5.80;99.90;;;;;;5188866;22;20521;-74
2022/02/22 05:25:36;;;;;;;27.42;4.85;;;5.80;99.90;;;;;;5185445;22;20101;-74
2022/02/22 05:27:37;;;;;;;25.45;4.60;;;5.80;99.90;;;;;;5187107;22;20019;-74
2022/02/22 05:29:37;;;;;;;23.02;4.82;;;5.80;99.90;;;;;;5187217;22;20014;-74
2022/02/22 05:31:38;;;;;;;25.88;5.22;;;5.80;99.90;;;;;;5184879;22;20008;-74
2022/02/22 05:33:38;;;;;;;33.03;5.28;;;5.80;99.90;;;;;;5160296;23;20119;-74
2022/02/22 05:35:39;;;;;;;26.17;5.60;;;5.80;99.90;;;;;;5186078;22;20079;-73
2022/02/22 05:37:40;;;;;;;19.67;4.32;;;5.80;99.90;;;;;;5187328;22;20011;-74
2022/02/22 05:39:41;;;;;;;20.13;4.43;;;5.80;99.90;;;;;;5159359;23;20012;-74
2022/02/22 05:41:41;;;;;;;23.00;3.60;;;5.80;99.90;;;;;;5186424;22;20014;-74
2022/02/22 05:43:42;;;;;;;20.05;4.75;;;5.80;99.90;;;;;;5187388;22;20012;-74
2022/02/22 05:45:43;;;;;;;18.75;4.32;;;5.80;99.90;;;;;;5186713;22;20817;-74
2022/02/22 05:47:43;;;;;;;17.23;3.83;;;5.90;99.90;;;;;;5187349;22;20011;-71
2022/02/22 05:49:44;;;;;;;17.25;3.70;;;5.90;99.90;;;;;;5160943;23;20071;-71
2022/02/22 05:51:45;;;;;;;17.63;3.55;;;5.90;99.90;;;;;;5187638;22;20012;-71
2022/02/22 05:53:48;;;;;;;27.13;4.93;;;5.80;99.90;;;;;;5187567;22;20375;-71
2022/02/22 05:55:48;;;;;;;25.70;4.78;;;5.80;99.90;;;;;;5159836;23;20008;-71
2022/02/22 05:57:50;;;;;;;24.25;4.53;;;5.80;99.90;;;;;;5189768;22;20008;-71
2022/02/22 05:59:51;;;;;;;26.42;5.15;;;5.80;99.90;;;;;;5188492;22;20015;-71
2022/02/22 06:01:51;;;;;;;23.90;4.15;;;5.80;99.90;;;;;;5188396;22;20058;-71
2022/02/22 06:03:52;;;;;;;27.17;4.97;;;5.80;99.90;;;;;;5189254;22;20464;-71
2022/02/22 06:05:52;;;;;;;19.15;4.00;;;5.80;99.90;;;;;;5187387;22;20047;-71
2022/02/22 06:07:53;;;;;;;25.45;4.80;;;5.80;99.90;;;;;;5187541;22;20035;-70
2022/02/22 06:09:53;;;;;;;27.25;5.60;;;5.70;99.90;;;;;;5188693;22;20057;-71
2022/02/22 06:11:54;;;;;;;24.27;4.72;;;5.70;99.90;;;;;;5188811;22;20082;-71
2022/02/22 06:13:55;;;;;;;29.83;5.18;;;5.70;99.90;;;;;;5188464;22;20011;-71
2022/02/22 06:15:55;;;;;;;22.67;4.47;;;5.70;99.90;;;;;;5187941;22;20117;-71
2022/02/22 06:17:56;;;;;;;31.70;4.85;;;5.70;99.90;;;;;;5160655;23;20012;-71
2022/02/22 06:19:57;;;;;;;18.38;4.07;;;5.70;99.90;;;;;;5161014;23;20086;-70
2022/02/22 06:21:57;;;;;;;17.40;4.63;;;5.70;99.90;;;;;;5187930;22;19999;-71
2022/02/22 06:23:58;;;;;;;31.25;4.95;;;5.70;99.90;;;;;;5159662;23;20040;-71
2022/02/22 06:25:59;;;;;;;16.83;3.97;;;5.70;99.90;;;;;;5159560;23;20507;-71
2022/02/22 06:27:59;;;;;;;23.48;4.00;;;5.70;99.90;;;;;;5188419;22;20011;-71
2022/02/22 06:30:00;;;;;;;18.48;3.80;;;5.70;99.90;;;;;;5187906;22;20043;-70
2022/02/22 06:32:01;;;;;;;16.92;3.72;;;5.70;99.90;;;;;;5187418;22;20019;-70
2022/02/22 06:34:04;;;;;;;24.52;4.05;;;5.70;99.90;;;;;;5188514;22;20020;-71
2022/02/22 06:36:05;;;;;;;27.63;4.88;;;5.70;99.90;;;;;;5158816;23;20442;-70
2022/02/22 06:38:06;;;;;;;20.00;3.88;;;5.70;99.90;;;;;;5160764;23;20004;-71
2022/02/22 06:40:07;;;;;;;25.58;5.10;;;5.70;99.90;;;;;;5187320;22;20016;-71
2022/02/22 06:42:09;;;;;;;20.20;3.95;;;5.70;99.90;;;;;;5187857;22;20046;-71
2022/02/22 06:44:09;;;;;;;20.67;3.97;;;5.70;99.90;;;;;;5160698;23;20024;-71
2022/02/22 06:46:10;;;;;;;22.23;4.20;;;5.70;99.90;;;;;;5159065;23;20127;-71
2022/02/22 06:48:13;;;;;;;16.42;3.58;;;5.70;99.90;;;;;;5186678;22;20016;-73
2022/02/22 06:50:14;;;;;;;19.98;3.88;;;5.70;99.90;;;;;;5184996;22;20008;-71
2022/02/22 06:52:15;;;;;;;27.63;4.82;;;5.80;99.90;;;;;;5187177;22;20012;-71
2022/02/22 06:54:17;;;;;;;19.65;3.47;;;5.70;99.90;;;;;;5188646;22;20468;-71
2022/02/22 06:56:17;;;;;;;16.67;3.75;;;5.70;99.90;;;;;;5187902;22;20019;-71
2022/02/22 06:58:18;;;;;;;25.25;4.63;;;5.80;99.90;;;;;;5190204;22;20350;-71
2022/02/22 07:00:21;;;;;;;17.13;3.55;;;5.80;99.90;;;;;;5189552;22;20016;-71
2022/02/22 07:02:21;;;;;;;20.40;4.25;;;5.80;99.90;;;;;;5189801;22;20046;-71
2022/02/22 07:04:22;;;;;;;17.67;4.55;;;5.70;99.90;;;;;;5189924;22;20011;-71
2022/02/22 07:06:22;;;;;;;22.30;4.68;;;5.70;99.90;;;;;;5188623;22;20023;-71
2022/02/22 07:08:23;;;;;;;18.20;4.15;;;5.70;99.90;;;;;;5189773;22;20090;-71
2022/02/22 07:10:27;;;;;;;19.48;3.97;;;5.70;99.90;;;;;;5189598;22;20061;-71
2022/02/22 07:12:28;;;;;;;25.00;4.53;;;5.70;99.90;;;;;;5189785;22;20023;-71
2022/02/22 07:14:28;;;;;;;23.30;4.30;;;5.70;99.90;;;;;;5189439;22;20357;-72
2022/02/22 07:16:29;;;;;;;16.00;3.55;;;5.70;99.90;;;;;;5161171;23;20453;-71
2022/02/22 07:18:30;;;;;;;16.88;4.07;;;5.70;99.90;;;;;;5161735;23;20039;-71
2022/02/22 07:20:30;;;;;;;20.65;4.22;;;5.80;99.90;;;;;;5188783;22;20031;-71
2022/02/22 07:22:31;;;;;;;23.00;5.03;;;5.80;99.90;;;;;;5189259;22;23685;-71
2022/02/22 07:24:32;;;;;;;21.83;4.43;;;5.80;99.90;;;;;;5162240;23;20385;-71
2022/02/22 07:26:32;;;;;;;21.08;4.40;;;5.70;99.90;;;;;;5189174;22;20036;-71
2022/02/22 07:28:33;;;;;;;25.60;4.45;;;5.80;99.90;;;;;;5189702;22;20003;-71
2022/02/22 07:30:33;;;;;;;16.85;3.92;;;5.80;99.90;;;;;;5188537;22;20019;-71
2022/02/22 07:32:35;;;;;;;18.83;3.22;;;5.80;99.90;;;;;;5162146;23;20012;-72
2022/02/22 07:34:35;;;;;;;21.13;3.75;;;5.80;99.90;;;;;;5162300;23;20010;-71
2022/02/22 07:36:36;;;;;;;24.13;5.00;;;5.80;99.90;;;;;;5161258;23;20373;-71
2022/02/22 07:38:37;;;;;;;33.58;5.07;;;5.80;99.90;;;;;;5188119;22;20011;-71
2022/02/22 07:40:37;;;;;;;17.50;3.47;;;5.80;99.90;;;;;;5184732;22;20016;-71
2022/02/22 07:42:38;;;;;;;25.58;4.43;;;5.80;99.90;;;;;;5188883;22;20032;-71
2022/02/22 07:44:39;;;;;;;24.52;5.70;;;5.90;99.90;;;;;;5187196;22;20024;-71
2022/02/22 07:46:39;;;;;;;28.77;4.93;;;5.90;99.90;;;;;;5157889;23;20078;-71
2022/02/22 07:48:40;;;;;;;33.92;6.43;;;6.00;99.90;;;;;;5161952;23;20008;-72
2022/02/22 07:50:41;;;;;;;23.52;4.78;;;5.90;99.90;;;;;;5188383;22;20004;-71
2022/02/22 07:52:41;;;;;;;23.17;4.40;;;5.90;99.90;;;;;;5189038;22;20007;-71
2022/02/22 07:54:42;;;;;;;19.33;4.40;;;6.00;99.90;;;;;;5188559;22;20011;-71
2022/02/22 07:56:43;;;;;;;23.23;4.35;;;6.10;99.90;;;;;;5186781;22;20070;-72
2022/02/22 07:58:44;;;;;;;27.83;5.10;;;6.10;99.90;;;;;;5161557;23;20442;-72
2022/02/22 08:00:44;;;;;;;27.60;4.65;;;6.20;99.90;;;;;;5188155;22;20044;-71
2022/02/22 08:02:45;;;;;;;17.95;4.55;;;6.20;99.90;;;;;;5162092;23;20066;-71
2022/02/22 08:04:45;;;;;;;23.02;4.50;;;6.20;99.90;;;;;;5188093;22;20008;-71
2022/02/22 08:06:46;;;;;;;26.92;4.72;;;6.30;99.90;;;;;;5161198;23;20092;-71
2022/02/22 08:08:47;;;;;;;23.63;5.03;;;6.30;99.90;;;;;;5161917;23;20449;-71
2022/02/22 08:10:48;;;;;;;30.08;5.03;;;6.30;99.90;;;;;;5187564;22;20004;-71
2022/02/22 08:12:51;;;;;;;21.45;4.05;;;6.40;99.90;;;;;;5189941;22;20011;-71
2022/02/22 08:14:52;;;;;;;23.67;4.13;;;6.40;99.90;;;;;;5190343;22;20011;-72
2022/02/22 08:17:01;;;;;;;22.35;5.18;;;6.50;99.90;;;;;;5189075;22;20023;-72
2022/02/22 08:19:02;;;;;;;23.90;4.93;;;6.50;99.90;;;;;;5189080;22;20004;-72
2022/02/22 08:21:03;;;;;;;21.00;4.55;;;6.50;99.90;;;;;;5188389;22;20012;-72
2022/02/22 08:23:04;;;;;;;16.65;4.13;;;6.50;99.90;;;;;;5188685;22;20008;-71
2022/02/22 08:25:05;;;;;;;17.95;4.03;;;6.50;99.90;;;;;;5187676;22;20014;-71
2022/02/22 08:27:06;;;;;;;19.27;4.10;;;6.60;99.90;;;;;;5187642;22;20083;-71
2022/02/22 08:29:07;;;;;;;20.65;4.50;;;6.70;99.90;;;;;;5160943;23;20030;-71
2022/02/22 08:31:07;;;;;;;23.58;4.63;;;6.70;99.90;;;;;;5188151;22;20333;-71
2022/02/22 08:33:08;;;;;;;18.45;4.35;;;6.70;99.90;;;;;;5188769;22;20035;-71
2022/02/22 08:35:09;;;;;;;15.07;3.75;;;6.80;99.90;;;;;;5187523;22;20025;-71
2022/02/22 08:37:09;;;;;;;26.35;4.88;;;6.80;99.90;;;;;;5188741;22;20035;-71
2022/02/22 08:39:10;;;;;;;18.58;3.97;;;6.80;99.90;;;;;;5161168;23;20019;-71
2022/02/22 08:41:11;;;;;;;18.65;3.95;;;6.80;99.90;;;;;;5186718;22;20069;-71
2022/02/22 08:43:14;;;;;;;14.00;3.28;;;6.90;99.90;;;;;;5188372;22;20808;-71
2022/02/22 08:45:15;;;;;;;25.50;4.72;;;6.90;99.90;;;;;;5186340;22;20091;-71
2022/02/22 08:47:16;;;;;;;15.73;3.85;;;6.90;99.90;;;;;;5188324;22;20024;-71
2022/02/22 08:49:17;;;;;;;17.63;4.18;;;6.90;99.90;;;;;;5188055;22;20508;-71
2022/02/22 08:51:17;;;;;;;21.65;4.50;;;6.90;99.90;;;;;;5186846;22;20019;-71
2022/02/22 08:53:18;;;;;;;15.27;3.75;;;6.90;99.90;;;;;;5187081;22;20437;-71
2022/02/22 08:55:19;;;;;;;25.73;5.18;;;6.90;99.90;;;;;;5188536;22;20444;-71
2022/02/22 08:57:20;;;;;;;19.08;4.05;;;6.90;99.90;;;;;;5188939;22;20436;-71
2022/02/22 08:59:20;;;;;;;23.05;5.43;;;6.90;99.90;;;;;;5189471;22;20346;-71
2022/02/22 09:01:21;;;;;;;22.88;4.65;;;6.90;99.90;;;;;;5188207;22;20460;-71
2022/02/22 09:03:22;;;;;;;24.05;4.68;;;6.90;99.90;;;;;;5188507;22;20022;-71
2022/02/22 09:05:24;;;;;;;19.52;4.70;;;6.90;99.90;;;;;;5188189;22;20087;-71
2022/02/22 09:07:24;;;;;;;17.33;4.90;;;6.90;99.90;;;;;;5160720;23;20483;-71
2022/02/22 09:09:25;;;;;;;16.40;4.15;;;6.90;99.90;;;;;;5188943;22;20065;-71
2022/02/22 09:11:25;;;;;;;18.58;4.45;;;6.90;99.90;;;;;;5187899;22;20020;-71
2022/02/22 09:13:26;;;;;;;22.38;4.60;;;6.90;99.90;;;;;;5160650;23;20091;-71
2022/02/22 09:15:31;;;;;;;17.17;4.43;;;7.00;99.90;;;;;;5187888;22;20365;-71
2022/02/22 09:17:31;;;;;;;24.80;5.28;;;7.00;99.90;;;;;;5188724;22;20019;-71
2022/02/22 09:19:32;;;;;;;14.20;4.65;;;7.00;99.90;;;;;;5188579;22;20454;-71
2022/02/22 09:21:33;;;;;;;17.40;4.10;;;7.00;99.90;;;;;;5160206;23;20890;-71
2022/02/22 09:23:33;;;;;;;17.95;5.10;;;7.00;99.90;;;;;;5188269;22;20326;-71
2022/02/22 09:25:35;;;;;;;18.38;4.78;;;7.00;99.90;;;;;;5186653;22;20500;-71
2022/02/22 09:27:37;;;;;;;15.90;4.47;;;7.00;99.90;;;;;;5187575;22;20022;-71
2022/02/22 09:29:38;;;;;;;14.40;3.97;;;7.10;99.90;;;;;;5187772;22;20319;-71
2022/02/22 09:31:39;;;;;;;18.02;3.92;;;7.10;99.90;;;;;;5159968;23;20114;-71
2022/02/22 09:33:39;;;;;;;13.32;4.18;;;7.10;99.90;;;;;;5161155;23;20493;-71
2022/02/22 09:35:40;;;;;;;15.35;3.75;;;7.10;99.90;;;;;;5187088;22;20437;-71
2022/02/22 09:37:41;;;;;;;14.00;3.38;;;7.20;99.90;;;;;;5188110;22;20012;-71
2022/02/22 09:39:42;;;;;;;13.77;3.78;;;7.20;99.90;;;;;;5187896;22;20011;-71
2022/02/22 09:41:43;;;;;;;17.27;4.20;;;7.30;99.90;;;;;;5186926;22;20022;-71
2022/02/22 09:43:47;;;;;;;13.02;3.70;;;7.40;99.90;;;;;;5186952;22;20016;-72
2022/02/22 09:45:49;;;;;;;13.60;3.53;;;7.40;99.90;;;;;;5187244;22;20022;-71
2022/02/22 09:47:50;;;;;;;15.65;4.32;;;7.40;99.90;;;;;;5187569;22;20011;-71
2022/02/22 09:49:51;;;;;;;19.50;4.35;;;7.50;99.90;;;;;;5188888;22;20019;-71
2022/02/22 09:51:53;;;;;;;19.67;4.15;;;7.50;99.90;;;;;;5188861;22;20011;-71
2022/02/22 09:53:54;;;;;;;13.88;4.57;;;7.50;99.90;;;;;;5188686;22;20441;-71
2022/02/22 09:55:55;;;;;;;22.73;4.45;;;7.60;99.90;;;;;;5187996;22;20054;-71
2022/02/22 09:57:56;;;;;;;12.70;3.65;;;7.60;99.90;;;;;;5188449;22;20003;-71
2022/02/22 09:59:57;;;;;;;19.15;4.72;;;7.70;99.90;;;;;;5188278;22;20004;-71
2022/02/22 10:01:58;;;;;;;16.00;4.85;;;7.70;99.90;;;;;;5187808;22;20030;-71
2022/02/22 10:03:59;;;;;;;22.80;5.13;;;7.70;99.90;;;;;;5188664;22;20011;-71
2022/02/22 10:06:02;;;;;;;20.15;4.40;;;7.70;99.90;;;;;;5187588;22;20043;-71
2022/02/22 10:08:03;;;;;;;;;;;7.80;99.90;;;;;;5188816;22;20012;-71
2022/02/22 10:10:04;;;;;;;18.67;4.85;;;7.80;99.90;;;;;;5188121;22;23971;-71
2022/02/22 10:12:06;;;;;;;13.40;4.18;;;7.90;99.90;;;;;;5188219;22;20072;-71
2022/02/22 10:14:07;;;;;;;20.65;5.15;;;7.90;99.90;;;;;;5161251;23;20423;-71
2022/02/22 10:16:12;;;;;;;19.65;5.20;;;8.00;99.90;;;;;;5187601;22;20012;-71
2022/02/22 10:18:15;;;;;;;24.85;5.13;;;8.00;99.90;;;;;;5159914;23;20509;-71
2022/02/22 10:20:16;;;;;;;26.42;5.45;;;8.10;99.90;;;;;;5186812;22;20027;-71
2022/02/22 10:22:16;;;;;;;29.92;6.00;;;8.10;99.90;;;;;;5187899;22;20099;-71
2022/02/22 10:24:19;;;;;;;23.35;6.18;;;8.10;99.90;;;;;;5160116;23;20016;-71
2022/02/22 10:26:26;;;;;;;31.17;5.97;;;8.10;99.90;;;;;;5186140;22;20020;-71
2022/02/22 10:28:28;;;;;;;16.77;4.20;;;8.10;99.90;;;;;;5189619;22;20032;-71
2022/02/22 10:30:43;;;;;;;19.15;5.40;;;8.20;99.90;;;;;;5189425;22;20020;-71